sensor_id;sensor_type;location;lat;lon;timestamp;temperature;humidity
55091;DHT22;40985;53.180;5.800;2023-09-30T00:02:14;11.30;99.90
55091;DHT22;40985;53.180;5.800;2023-09-30T00:04:40;11.30;99.90
55091;DHT22;40985;53.180;5.800;2023-09-30T00:07:05;11.30;99.90
55091;DHT22;40985;53.180;5.800;2023-09-30T00:09:31;11.30;99.90
55091;DHT22;40985;53.180;5.800;2023-09-30T00:11:57;11.30;99.90
55091;DHT22;40985;53.180;5.800;2023-09-30T00:14:23;11.40;99.90
55091;DHT22;40985;53.180;5.800;2023-09-30T00:16:49;11.30;99.90
55091;DHT22;40985;53.180;5.800;2023-09-30T00:19:14;11.30;99.90
55091;DHT22;40985;53.180;5.800;2023-09-30T00:21:40;11.30;99.90
55091;DHT22;40985;53.180;5.800;2023-09-30T00:24:06;11.40;99.90
55091;DHT22;40985;53.180;5.800;2023-09-30T00:26:31;11.30;99.90
55091;DHT22;40985;53.180;5.800;2023-09-30T00:28:57;11.40;99.90
55091;DHT22;40985;53.180;5.800;2023-09-30T00:31:23;11.30;99.90
55091;DHT22;40985;53.180;5.800;2023-09-30T00:33:48;11.30;99.90
55091;DHT22;40985;53.180;5.800;2023-09-30T00:36:14;11.30;99.90
55091;DHT22;40985;53.180;5.800;2023-09-30T00:38:40;11.30;99.90
55091;DHT22;40985;53.180;5.800;2023-09-30T00:41:06;11.40;99.90
55091;DHT22;40985;53.180;5.800;2023-09-30T00:43:35;11.30;99.90
55091;DHT22;40985;53.180;5.800;2023-09-30T00:46:18;11.30;99.90
55091;DHT22;40985;53.180;5.800;2023-09-30T00:48:46;11.30;99.90
55091;DHT22;40985;53.180;5.800;2023-09-30T00:51:12;11.30;99.90
55091;DHT22;40985;53.180;5.800;2023-09-30T00:53:38;11.40;99.90
55091;DHT22;40985;53.180;5.800;2023-09-30T00:56:04;11.50;99.90
55091;DHT22;40985;53.180;5.800;2023-09-30T00:58:30;11.50;99.90
55091;DHT22;40985;53.180;5.800;2023-09-30T01:00:59;11.50;99.90
55091;DHT22;40985;53.180;5.800;2023-09-30T01:03:25;11.60;99.90
55091;DHT22;40985;53.180;5.800;2023-09-30T01:05:51;11.60;99.90
55091;DHT22;40985;53.180;5.800;2023-09-30T01:08:17;11.70;99.90
55091;DHT22;40985;53.180;5.800;2023-09-30T01:10:45;11.60;99.90
55091;DHT22;40985;53.180;5.800;2023-09-30T01:13:10;11.70;99.90
55091;DHT22;40985;53.180;5.800;2023-09-30T01:15:36;11.80;99.90
55091;DHT22;40985;53.180;5.800;2023-09-30T01:18:03;11.80;99.90
55091;DHT22;40985;53.180;5.800;2023-09-30T01:20:29;11.80;99.90
55091;DHT22;40985;53.180;5.800;2023-09-30T01:22:56;11.80;99.90
55091;DHT22;40985;53.180;5.800;2023-09-30T01:25:22;11.90;99.90
55091;DHT22;40985;53.180;5.800;2023-09-30T01:27:48;11.90;99.90
55091;DHT22;40985;53.180;5.800;2023-09-30T01:30:13;11.90;99.90
55091;DHT22;40985;53.180;5.800;2023-09-30T01:32:40;11.90;99.90
55091;DHT22;40985;53.180;5.800;2023-09-30T01:35:06;12.00;99.90
55091;DHT22;40985;53.180;5.800;2023-09-30T01:37:32;11.90;99.90
55091;DHT22;40985;53.180;5.800;2023-09-30T01:39:57;11.90;99.90
55091;DHT22;40985;53.180;5.800;2023-09-30T01:42:23;11.90;99.90
55091;DHT22;40985;53.180;5.800;2023-09-30T01:44:49;11.90;99.90
55091;DHT22;40985;53.180;5.800;2023-09-30T01:47:14;11.90;99.90
55091;DHT22;40985;53.180;5.800;2023-09-30T01:49:40;11.90;99.90
55091;DHT22;40985;53.180;5.800;2023-09-30T01:52:06;11.90;99.90
55091;DHT22;40985;53.180;5.800;2023-09-30T01:54:31;12.00;99.90
55091;DHT22;40985;53.180;5.800;2023-09-30T01:56:57;11.90;99.90
55091;DHT22;40985;53.180;5.800;2023-09-30T01:59:24;12.00;99.90
55091;DHT22;40985;53.180;5.800;2023-09-30T02:01:50;12.00;99.90
55091;DHT22;40985;53.180;5.800;2023-09-30T02:04:15;12.00;99.90
55091;DHT22;40985;53.180;5.800;2023-09-30T02:06:42;12.20;99.90
55091;DHT22;40985;53.180;5.800;2023-09-30T02:09:07;12.20;99.90
55091;DHT22;40985;53.180;5.800;2023-09-30T02:11:35;12.20;99.90
55091;DHT22;40985;53.180;5.800;2023-09-30T02:14:02;12.20;99.90
55091;DHT22;40985;53.180;5.800;2023-09-30T02:16:28;12.20;99.90
55091;DHT22;40985;53.180;5.800;2023-09-30T02:18:53;12.20;99.90
55091;DHT22;40985;53.180;5.800;2023-09-30T02:21:19;12.20;99.90
55091;DHT22;40985;53.180;5.800;2023-09-30T02:23:47;12.20;99.90
55091;DHT22;40985;53.180;5.800;2023-09-30T02:26:20;12.20;99.90
55091;DHT22;40985;53.180;5.800;2023-09-30T02:28:47;12.30;99.90
55091;DHT22;40985;53.180;5.800;2023-09-30T02:31:12;12.30;99.90
55091;DHT22;40985;53.180;5.800;2023-09-30T02:33:38;12.40;99.90
55091;DHT22;40985;53.180;5.800;2023-09-30T02:36:08;12.40;99.90
55091;DHT22;40985;53.180;5.800;2023-09-30T02:38:37;12.30;99.90
55091;DHT22;40985;53.180;5.800;2023-09-30T02:41:03;12.20;99.90
55091;DHT22;40985;53.180;5.800;2023-09-30T02:43:29;12.30;99.90
55091;DHT22;40985;53.180;5.800;2023-09-30T02:45:55;12.30;99.90
55091;DHT22;40985;53.180;5.800;2023-09-30T02:48:20;12.30;99.90
55091;DHT22;40985;53.180;5.800;2023-09-30T02:50:46;12.30;99.90
55091;DHT22;40985;53.180;5.800;2023-09-30T02:53:12;12.30;99.90
55091;DHT22;40985;53.180;5.800;2023-09-30T02:55:39;12.20;99.90
55091;DHT22;40985;53.180;5.800;2023-09-30T02:58:05;12.30;99.90
55091;DHT22;40985;53.180;5.800;2023-09-30T03:00:33;12.30;99.90
55091;DHT22;40985;53.180;5.800;2023-09-30T03:03:00;12.10;99.90
55091;DHT22;40985;53.180;5.800;2023-09-30T03:05:30;12.10;99.90
55091;DHT22;40985;53.180;5.800;2023-09-30T03:07:59;12.10;99.90
55091;DHT22;40985;53.180;5.800;2023-09-30T03:10:26;12.10;99.90
55091;DHT22;40985;53.180;5.800;2023-09-30T03:12:55;12.10;99.90
55091;DHT22;40985;53.180;5.800;2023-09-30T03:15:22;12.10;99.90
55091;DHT22;40985;53.180;5.800;2023-09-30T03:17:49;12.00;99.90
55091;DHT22;40985;53.180;5.800;2023-09-30T03:20:15;12.00;99.90
55091;DHT22;40985;53.180;5.800;2023-09-30T03:22:44;12.00;99.90
55091;DHT22;40985;53.180;5.800;2023-09-30T03:25:13;11.90;99.90
55091;DHT22;40985;53.180;5.800;2023-09-30T03:27:40;11.80;99.90
55091;DHT22;40985;53.180;5.800;2023-09-30T03:30:08;11.80;99.90
55091;DHT22;40985;53.180;5.800;2023-09-30T03:32:34;11.80;99.90
55091;DHT22;40985;53.180;5.800;2023-09-30T03:35:02;11.80;99.90
55091;DHT22;40985;53.180;5.800;2023-09-30T03:37:28;11.80;99.90
55091;DHT22;40985;53.180;5.800;2023-09-30T03:39:57;11.70;99.90
55091;DHT22;40985;53.180;5.800;2023-09-30T03:42:23;11.70;99.90
55091;DHT22;40985;53.180;5.800;2023-09-30T03:44:49;11.60;99.90
55091;DHT22;40985;53.180;5.800;2023-09-30T03:47:18;11.60;99.90
55091;DHT22;40985;53.180;5.800;2023-09-30T03:49:44;11.60;99.90
55091;DHT22;40985;53.180;5.800;2023-09-30T03:52:11;11.50;99.90
55091;DHT22;40985;53.180;5.800;2023-09-30T03:54:37;11.50;99.90
55091;DHT22;40985;53.180;5.800;2023-09-30T03:57:03;11.30;99.90
55091;DHT22;40985;53.180;5.800;2023-09-30T03:59:30;11.30;99.90
55091;DHT22;40985;53.180;5.800;2023-09-30T04:01:56;11.30;99.90
55091;DHT22;40985;53.180;5.800;2023-09-30T04:04:23;11.30;99.90
55091;DHT22;40985;53.180;5.800;2023-09-30T04:06:50;11.30;99.90
55091;DHT22;40985;53.180;5.800;2023-09-30T04:09:17;11.30;99.90
55091;DHT22;40985;53.180;5.800;2023-09-30T04:11:43;11.20;99.90
55091;DHT22;40985;53.180;5.800;2023-09-30T04:14:09;11.20;99.90
55091;DHT22;40985;53.180;5.800;2023-09-30T04:16:36;11.20;99.90
55091;DHT22;40985;53.180;5.800;2023-09-30T04:19:03;11.20;99.90
55091;DHT22;40985;53.180;5.800;2023-09-30T04:21:29;11.10;99.90
55091;DHT22;40985;53.180;5.800;2023-09-30T04:23:59;11.20;99.90
55091;DHT22;40985;53.180;5.800;2023-09-30T04:26:24;11.10;99.90
55091;DHT22;40985;53.180;5.800;2023-09-30T04:28:51;11.20;99.90
55091;DHT22;40985;53.180;5.800;2023-09-30T04:31:16;11.10;99.90
55091;DHT22;40985;53.180;5.800;2023-09-30T04:33:43;11.10;99.90
55091;DHT22;40985;53.180;5.800;2023-09-30T04:36:09;11.20;99.90
55091;DHT22;40985;53.180;5.800;2023-09-30T04:38:36;11.10;99.90
55091;DHT22;40985;53.180;5.800;2023-09-30T04:41:04;11.10;99.90
55091;DHT22;40985;53.180;5.800;2023-09-30T04:43:33;11.10;99.90
55091;DHT22;40985;53.180;5.800;2023-09-30T04:45:59;11.10;99.90
55091;DHT22;40985;53.180;5.800;2023-09-30T04:48:25;11.00;99.90
55091;DHT22;40985;53.180;5.800;2023-09-30T04:50:50;10.90;99.90
55091;DHT22;40985;53.180;5.800;2023-09-30T04:53:20;10.80;99.90
55091;DHT22;40985;53.180;5.800;2023-09-30T04:55:46;10.80;99.90
55091;DHT22;40985;53.180;5.800;2023-09-30T04:58:14;10.70;99.90
55091;DHT22;40985;53.180;5.800;2023-09-30T05:00:40;10.70;99.90
55091;DHT22;40985;53.180;5.800;2023-09-30T05:03:06;10.70;99.90
55091;DHT22;40985;53.180;5.800;2023-09-30T05:05:32;10.70;99.90
55091;DHT22;40985;53.180;5.800;2023-09-30T05:07:58;10.60;99.90
55091;DHT22;40985;53.180;5.800;2023-09-30T05:10:25;10.60;99.90
55091;DHT22;40985;53.180;5.800;2023-09-30T05:12:50;10.50;99.90
55091;DHT22;40985;53.180;5.800;2023-09-30T05:15:20;10.40;99.90
55091;DHT22;40985;53.180;5.800;2023-09-30T05:17:47;10.40;99.90
55091;DHT22;40985;53.180;5.800;2023-09-30T05:20:13;10.40;99.90
55091;DHT22;40985;53.180;5.800;2023-09-30T05:22:39;10.30;99.90
55091;DHT22;40985;53.180;5.800;2023-09-30T05:25:12;10.30;99.90
55091;DHT22;40985;53.180;5.800;2023-09-30T05:27:38;10.20;99.90
55091;DHT22;40985;53.180;5.800;2023-09-30T05:30:05;10.20;99.90
55091;DHT22;40985;53.180;5.800;2023-09-30T05:32:32;10.10;99.90
55091;DHT22;40985;53.180;5.800;2023-09-30T05:34:58;10.20;99.90
55091;DHT22;40985;53.180;5.800;2023-09-30T05:37:24;10.20;99.90
55091;DHT22;40985;53.180;5.800;2023-09-30T05:39:51;10.10;99.90
55091;DHT22;40985;53.180;5.800;2023-09-30T05:42:17;10.10;99.90
55091;DHT22;40985;53.180;5.800;2023-09-30T05:44:44;10.10;99.90
55091;DHT22;40985;53.180;5.800;2023-09-30T05:47:11;10.00;99.90
55091;DHT22;40985;53.180;5.800;2023-09-30T05:49:37;10.00;99.90
55091;DHT22;40985;53.180;5.800;2023-09-30T05:52:03;10.10;99.90
55091;DHT22;40985;53.180;5.800;2023-09-30T05:54:30;10.10;99.90
55091;DHT22;40985;53.180;5.800;2023-09-30T05:56:56;10.00;99.90
55091;DHT22;40985;53.180;5.800;2023-09-30T05:59:22;10.10;99.90
55091;DHT22;40985;53.180;5.800;2023-09-30T06:01:50;10.10;99.90
55091;DHT22;40985;53.180;5.800;2023-09-30T06:04:16;10.00;99.90
55091;DHT22;40985;53.180;5.800;2023-09-30T06:06:42;10.10;99.90
55091;DHT22;40985;53.180;5.800;2023-09-30T06:09:08;10.10;99.90
55091;DHT22;40985;53.180;5.800;2023-09-30T06:11:34;10.00;99.90
55091;DHT22;40985;53.180;5.800;2023-09-30T06:14:02;10.10;99.90
55091;DHT22;40985;53.180;5.800;2023-09-30T06:16:28;10.00;99.90
55091;DHT22;40985;53.180;5.800;2023-09-30T06:18:54;10.10;99.90
55091;DHT22;40985;53.180;5.800;2023-09-30T06:21:24;10.10;99.90
55091;DHT22;40985;53.180;5.800;2023-09-30T06:23:51;10.10;99.90
55091;DHT22;40985;53.180;5.800;2023-09-30T06:26:19;10.10;99.90
55091;DHT22;40985;53.180;5.800;2023-09-30T06:28:46;10.20;99.90
55091;DHT22;40985;53.180;5.800;2023-09-30T06:31:13;10.20;99.90
55091;DHT22;40985;53.180;5.800;2023-09-30T06:33:39;10.20;99.90
55091;DHT22;40985;53.180;5.800;2023-09-30T06:36:23;10.30;99.90
55091;DHT22;40985;53.180;5.800;2023-09-30T06:38:49;10.20;99.90
55091;DHT22;40985;53.180;5.800;2023-09-30T06:41:16;10.30;99.90
55091;DHT22;40985;53.180;5.800;2023-09-30T06:43:43;10.40;99.90
55091;DHT22;40985;53.180;5.800;2023-09-30T06:46:09;10.40;99.90
55091;DHT22;40985;53.180;5.800;2023-09-30T06:48:35;10.40;99.90
55091;DHT22;40985;53.180;5.800;2023-09-30T06:51:01;10.50;99.90
55091;DHT22;40985;53.180;5.800;2023-09-30T06:53:27;10.50;99.90
55091;DHT22;40985;53.180;5.800;2023-09-30T06:55:53;10.60;99.90
55091;DHT22;40985;53.180;5.800;2023-09-30T06:58:18;10.70;99.90
55091;DHT22;40985;53.180;5.800;2023-09-30T07:00:50;10.70;99.90
55091;DHT22;40985;53.180;5.800;2023-09-30T07:03:17;10.80;99.90
55091;DHT22;40985;53.180;5.800;2023-09-30T07:05:45;10.80;99.90
55091;DHT22;40985;53.180;5.800;2023-09-30T07:08:11;10.90;99.90
55091;DHT22;40985;53.180;5.800;2023-09-30T07:10:36;11.00;99.90
55091;DHT22;40985;53.180;5.800;2023-09-30T07:13:03;11.00;99.90
55091;DHT22;40985;53.180;5.800;2023-09-30T07:15:29;11.10;99.90
55091;DHT22;40985;53.180;5.800;2023-09-30T07:17:55;11.30;99.90
55091;DHT22;40985;53.180;5.800;2023-09-30T07:20:21;11.40;99.90
55091;DHT22;40985;53.180;5.800;2023-09-30T07:22:48;11.50;99.90
55091;DHT22;40985;53.180;5.800;2023-09-30T07:25:14;11.60;99.90
55091;DHT22;40985;53.180;5.800;2023-09-30T07:27:44;11.70;99.90
55091;DHT22;40985;53.180;5.800;2023-09-30T07:30:11;11.70;99.90
55091;DHT22;40985;53.180;5.800;2023-09-30T07:32:38;11.90;99.90
55091;DHT22;40985;53.180;5.800;2023-09-30T07:35:04;12.00;99.90
55091;DHT22;40985;53.180;5.800;2023-09-30T07:37:29;12.10;99.90
55091;DHT22;40985;53.180;5.800;2023-09-30T07:39:55;12.20;99.90
55091;DHT22;40985;53.180;5.800;2023-09-30T07:42:21;12.20;99.90
55091;DHT22;40985;53.180;5.800;2023-09-30T07:44:48;12.40;99.90
55091;DHT22;40985;53.180;5.800;2023-09-30T07:47:14;12.60;99.90
55091;DHT22;40985;53.180;5.800;2023-09-30T07:49:40;12.50;99.90
55091;DHT22;40985;53.180;5.800;2023-09-30T07:52:06;12.60;99.90
55091;DHT22;40985;53.180;5.800;2023-09-30T07:54:31;12.70;99.90
55091;DHT22;40985;53.180;5.800;2023-09-30T07:56:58;12.80;99.90
55091;DHT22;40985;53.180;5.800;2023-09-30T07:59:24;13.00;99.90
55091;DHT22;40985;53.180;5.800;2023-09-30T08:01:51;13.20;99.90
55091;DHT22;40985;53.180;5.800;2023-09-30T08:04:18;13.30;99.90
55091;DHT22;40985;53.180;5.800;2023-09-30T08:06:44;13.40;99.90
55091;DHT22;40985;53.180;5.800;2023-09-30T08:09:13;13.60;99.90
55091;DHT22;40985;53.180;5.800;2023-09-30T08:11:39;13.70;99.90
55091;DHT22;40985;53.180;5.800;2023-09-30T08:14:05;13.70;99.90
55091;DHT22;40985;53.180;5.800;2023-09-30T08:16:37;13.80;99.90
55091;DHT22;40985;53.180;5.800;2023-09-30T08:19:03;14.00;99.90
55091;DHT22;40985;53.180;5.800;2023-09-30T08:21:30;14.00;99.90
55091;DHT22;40985;53.180;5.800;2023-09-30T08:23:59;14.10;99.90
55091;DHT22;40985;53.180;5.800;2023-09-30T08:26:25;14.30;99.90
55091;DHT22;40985;53.180;5.800;2023-09-30T08:28:51;14.40;99.90
55091;DHT22;40985;53.180;5.800;2023-09-30T08:31:16;14.60;99.90
55091;DHT22;40985;53.180;5.800;2023-09-30T08:33:42;14.50;99.90
55091;DHT22;40985;53.180;5.800;2023-09-30T08:36:10;14.80;99.90
55091;DHT22;40985;53.180;5.800;2023-09-30T08:38:38;14.70;99.90
55091;DHT22;40985;53.180;5.800;2023-09-30T08:41:05;14.90;99.90
55091;DHT22;40985;53.180;5.800;2023-09-30T08:43:31;14.90;99.90
55091;DHT22;40985;53.180;5.800;2023-09-30T08:46:00;15.10;99.90
55091;DHT22;40985;53.180;5.800;2023-09-30T08:48:28;15.10;99.90
55091;DHT22;40985;53.180;5.800;2023-09-30T08:50:56;15.20;99.90
55091;DHT22;40985;53.180;5.800;2023-09-30T08:53:23;15.30;99.90
55091;DHT22;40985;53.180;5.800;2023-09-30T08:55:53;15.30;99.90
55091;DHT22;40985;53.180;5.800;2023-09-30T08:58:19;15.40;99.90
55091;DHT22;40985;53.180;5.800;2023-09-30T09:00:47;15.50;99.90
55091;DHT22;40985;53.180;5.800;2023-09-30T09:03:13;15.50;99.90
55091;DHT22;40985;53.180;5.800;2023-09-30T09:05:39;15.60;99.90
55091;DHT22;40985;53.180;5.800;2023-09-30T09:08:06;15.70;99.90
55091;DHT22;40985;53.180;5.800;2023-09-30T09:10:31;15.80;99.90
55091;DHT22;40985;53.180;5.800;2023-09-30T09:12:58;15.80;99.90
55091;DHT22;40985;53.180;5.800;2023-09-30T09:15:28;15.90;99.90
55091;DHT22;40985;53.180;5.800;2023-09-30T09:17:54;16.00;99.90
55091;DHT22;40985;53.180;5.800;2023-09-30T09:20:23;16.10;99.90
55091;DHT22;40985;53.180;5.800;2023-09-30T09:22:54;16.20;99.90
55091;DHT22;40985;53.180;5.800;2023-09-30T09:25:24;16.40;99.90
55091;DHT22;40985;53.180;5.800;2023-09-30T09:27:51;16.50;99.90
55091;DHT22;40985;53.180;5.800;2023-09-30T09:30:24;16.50;99.90
55091;DHT22;40985;53.180;5.800;2023-09-30T09:33:10;16.40;99.90
55091;DHT22;40985;53.180;5.800;2023-09-30T09:35:36;16.30;99.90
55091;DHT22;40985;53.180;5.800;2023-09-30T09:40:36;16.80;99.90
55091;DHT22;40985;53.180;5.800;2023-09-30T09:43:04;16.80;99.90
55091;DHT22;40985;53.180;5.800;2023-09-30T09:45:33;16.90;99.90
55091;DHT22;40985;53.180;5.800;2023-09-30T09:48:00;16.80;99.90
55091;DHT22;40985;53.180;5.800;2023-09-30T09:50:25;16.70;99.90
55091;DHT22;40985;53.180;5.800;2023-09-30T09:52:52;16.90;99.90
55091;DHT22;40985;53.180;5.800;2023-09-30T09:55:21;16.90;99.90
55091;DHT22;40985;53.180;5.800;2023-09-30T09:57:50;17.00;99.90
55091;DHT22;40985;53.180;5.800;2023-09-30T10:00:22;16.80;99.90
55091;DHT22;40985;53.180;5.800;2023-09-30T10:02:49;16.80;99.90
55091;DHT22;40985;53.180;5.800;2023-09-30T10:05:16;16.80;99.90
55091;DHT22;40985;53.180;5.800;2023-09-30T10:07:56;17.00;99.90
55091;DHT22;40985;53.180;5.800;2023-09-30T10:10:23;17.00;99.90
55091;DHT22;40985;53.180;5.800;2023-09-30T10:12:50;17.20;99.90
55091;DHT22;40985;53.180;5.800;2023-09-30T10:18:01;17.10;99.90
55091;DHT22;40985;53.180;5.800;2023-09-30T10:20:37;17.10;99.90
55091;DHT22;40985;53.180;5.800;2023-09-30T10:23:24;17.00;99.90
55091;DHT22;40985;53.180;5.800;2023-09-30T10:26:13;17.00;99.90
55091;DHT22;40985;53.180;5.800;2023-09-30T10:28:41;17.10;99.90
55091;DHT22;40985;53.180;5.800;2023-09-30T10:31:19;17.30;99.90
55091;DHT22;40985;53.180;5.800;2023-09-30T10:36:33;17.50;99.90
55091;DHT22;40985;53.180;5.800;2023-09-30T10:39:00;17.70;99.90
55091;DHT22;40985;53.180;5.800;2023-09-30T10:46:58;17.70;99.90
55091;DHT22;40985;53.180;5.800;2023-09-30T10:51:53;17.70;99.90
55091;DHT22;40985;53.180;5.800;2023-09-30T10:54:27;17.70;99.90
55091;DHT22;40985;53.180;5.800;2023-09-30T10:56:54;17.90;99.90
55091;DHT22;40985;53.180;5.800;2023-09-30T10:59:24;17.90;99.90
55091;DHT22;40985;53.180;5.800;2023-09-30T11:01:50;18.00;99.90
55091;DHT22;40985;53.180;5.800;2023-09-30T11:04:17;18.00;99.90
55091;DHT22;40985;53.180;5.800;2023-09-30T11:06:44;18.00;99.90
55091;DHT22;40985;53.180;5.800;2023-09-30T11:09:24;18.10;99.90
55091;DHT22;40985;53.180;5.800;2023-09-30T11:11:53;18.10;99.90
55091;DHT22;40985;53.180;5.800;2023-09-30T11:14:24;18.20;99.90
55091;DHT22;40985;53.180;5.800;2023-09-30T11:16:51;18.20;99.90
55091;DHT22;40985;53.180;5.800;2023-09-30T11:19:18;18.00;99.90
55091;DHT22;40985;53.180;5.800;2023-09-30T11:21:50;18.10;99.90
55091;DHT22;40985;53.180;5.800;2023-09-30T11:24:16;18.30;99.90
55091;DHT22;40985;53.180;5.800;2023-09-30T11:26:44;18.30;99.90
55091;DHT22;40985;53.180;5.800;2023-09-30T11:29:11;18.50;99.90
55091;DHT22;40985;53.180;5.800;2023-09-30T11:31:41;18.50;99.90
55091;DHT22;40985;53.180;5.800;2023-09-30T11:34:08;18.60;99.90
55091;DHT22;40985;53.180;5.800;2023-09-30T11:36:35;18.60;99.90
55091;DHT22;40985;53.180;5.800;2023-09-30T11:39:01;18.40;99.90
55091;DHT22;40985;53.180;5.800;2023-09-30T11:41:39;18.50;99.90
55091;DHT22;40985;53.180;5.800;2023-09-30T11:44:11;18.40;99.90
55091;DHT22;40985;53.180;5.800;2023-09-30T11:46:58;18.40;99.90
55091;DHT22;40985;53.180;5.800;2023-09-30T11:49:37;18.30;99.90
55091;DHT22;40985;53.180;5.800;2023-09-30T11:52:07;18.30;99.90
55091;DHT22;40985;53.180;5.800;2023-09-30T11:54:40;18.40;99.90
55091;DHT22;40985;53.180;5.800;2023-09-30T11:57:09;18.60;99.90
55091;DHT22;40985;53.180;5.800;2023-09-30T11:59:38;18.70;99.90
55091;DHT22;40985;53.180;5.800;2023-09-30T12:02:10;18.60;99.90
55091;DHT22;40985;53.180;5.800;2023-09-30T12:04:36;18.50;99.90
55091;DHT22;40985;53.180;5.800;2023-09-30T12:07:02;18.30;99.90
55091;DHT22;40985;53.180;5.800;2023-09-30T12:09:28;18.20;99.90
55091;DHT22;40985;53.180;5.800;2023-09-30T12:11:56;18.20;99.90
55091;DHT22;40985;53.180;5.800;2023-09-30T12:14:26;18.10;99.90
55091;DHT22;40985;53.180;5.800;2023-09-30T12:16:55;18.10;99.90
55091;DHT22;40985;53.180;5.800;2023-09-30T12:19:20;18.10;99.90
55091;DHT22;40985;53.180;5.800;2023-09-30T12:21:47;18.10;99.90
55091;DHT22;40985;53.180;5.800;2023-09-30T12:24:16;18.10;99.90
55091;DHT22;40985;53.180;5.800;2023-09-30T12:26:50;18.00;99.90
55091;DHT22;40985;53.180;5.800;2023-09-30T12:29:21;18.00;99.90
55091;DHT22;40985;53.180;5.800;2023-09-30T12:31:49;18.10;99.90
55091;DHT22;40985;53.180;5.800;2023-09-30T12:34:15;18.10;99.90
55091;DHT22;40985;53.180;5.800;2023-09-30T12:36:41;18.20;99.90
55091;DHT22;40985;53.180;5.800;2023-09-30T12:39:08;18.10;99.90
55091;DHT22;40985;53.180;5.800;2023-09-30T12:41:41;18.10;99.90
55091;DHT22;40985;53.180;5.800;2023-09-30T12:44:08;18.00;99.90
55091;DHT22;40985;53.180;5.800;2023-09-30T12:46:34;18.00;99.90
55091;DHT22;40985;53.180;5.800;2023-09-30T12:49:05;17.90;99.90
55091;DHT22;40985;53.180;5.800;2023-09-30T12:51:32;17.90;99.90
55091;DHT22;40985;53.180;5.800;2023-09-30T12:53:59;17.80;99.90
55091;DHT22;40985;53.180;5.800;2023-09-30T12:56:25;17.70;99.90
55091;DHT22;40985;53.180;5.800;2023-09-30T12:58:51;17.70;99.90
55091;DHT22;40985;53.180;5.800;2023-09-30T13:01:17;17.80;99.90
55091;DHT22;40985;53.180;5.800;2023-09-30T13:03:47;17.90;99.90
55091;DHT22;40985;53.180;5.800;2023-09-30T13:06:12;17.90;99.90
55091;DHT22;40985;53.180;5.800;2023-09-30T13:08:38;18.00;99.90
55091;DHT22;40985;53.180;5.800;2023-09-30T13:11:04;18.10;99.90
55091;DHT22;40985;53.180;5.800;2023-09-30T13:13:31;18.30;99.90
55091;DHT22;40985;53.180;5.800;2023-09-30T13:16:02;18.30;99.90
55091;DHT22;40985;53.180;5.800;2023-09-30T13:18:31;18.30;99.90
55091;DHT22;40985;53.180;5.800;2023-09-30T13:20:58;18.10;99.90
55091;DHT22;40985;53.180;5.800;2023-09-30T13:23:23;18.20;99.90
55091;DHT22;40985;53.180;5.800;2023-09-30T13:25:49;18.20;99.90
55091;DHT22;40985;53.180;5.800;2023-09-30T13:28:15;18.30;99.90
55091;DHT22;40985;53.180;5.800;2023-09-30T13:30:41;18.30;99.90
55091;DHT22;40985;53.180;5.800;2023-09-30T13:33:07;18.40;99.90
55091;DHT22;40985;53.180;5.800;2023-09-30T13:35:33;18.50;99.90
55091;DHT22;40985;53.180;5.800;2023-09-30T13:37:59;18.40;99.90
55091;DHT22;40985;53.180;5.800;2023-09-30T13:40:25;18.60;99.90
55091;DHT22;40985;53.180;5.800;2023-09-30T13:42:51;18.70;99.90
55091;DHT22;40985;53.180;5.800;2023-09-30T13:45:17;18.90;99.90
55091;DHT22;40985;53.180;5.800;2023-09-30T13:47:43;18.70;99.90
55091;DHT22;40985;53.180;5.800;2023-09-30T13:50:09;18.80;99.90
55091;DHT22;40985;53.180;5.800;2023-09-30T13:52:36;18.50;99.90
55091;DHT22;40985;53.180;5.800;2023-09-30T13:55:02;18.20;99.90
55091;DHT22;40985;53.180;5.800;2023-09-30T13:57:28;18.20;99.90
55091;DHT22;40985;53.180;5.800;2023-09-30T13:59:55;18.10;99.90
55091;DHT22;40985;53.180;5.800;2023-09-30T14:02:20;18.10;99.90
55091;DHT22;40985;53.180;5.800;2023-09-30T14:04:46;18.10;99.90
55091;DHT22;40985;53.180;5.800;2023-09-30T14:07:12;18.20;99.90
55091;DHT22;40985;53.180;5.800;2023-09-30T14:09:38;18.30;99.90
55091;DHT22;40985;53.180;5.800;2023-09-30T14:12:03;18.40;99.90
55091;DHT22;40985;53.180;5.800;2023-09-30T14:14:31;18.60;99.90
55091;DHT22;40985;53.180;5.800;2023-09-30T14:16:58;18.50;99.90
55091;DHT22;40985;53.180;5.800;2023-09-30T14:19:24;18.70;99.90
55091;DHT22;40985;53.180;5.800;2023-09-30T14:21:49;18.70;99.90
55091;DHT22;40985;53.180;5.800;2023-09-30T14:24:15;18.80;99.90
55091;DHT22;40985;53.180;5.800;2023-09-30T14:26:41;18.80;99.90
55091;DHT22;40985;53.180;5.800;2023-09-30T14:29:06;18.90;99.90
55091;DHT22;40985;53.180;5.800;2023-09-30T14:31:32;18.80;99.90
55091;DHT22;40985;53.180;5.800;2023-09-30T14:33:58;18.90;99.90
55091;DHT22;40985;53.180;5.800;2023-09-30T14:36:23;18.90;99.90
55091;DHT22;40985;53.180;5.800;2023-09-30T14:38:49;18.90;99.90
55091;DHT22;40985;53.180;5.800;2023-09-30T14:41:15;18.90;99.90
55091;DHT22;40985;53.180;5.800;2023-09-30T14:43:41;18.80;99.90
55091;DHT22;40985;53.180;5.800;2023-09-30T14:46:07;18.80;99.90
55091;DHT22;40985;53.180;5.800;2023-09-30T14:48:34;18.70;99.90
55091;DHT22;40985;53.180;5.800;2023-09-30T14:51:01;18.60;99.90
55091;DHT22;40985;53.180;5.800;2023-09-30T14:53:30;18.50;99.90
55091;DHT22;40985;53.180;5.800;2023-09-30T14:55:56;18.40;99.90
55091;DHT22;40985;53.180;5.800;2023-09-30T14:58:21;18.40;99.90
55091;DHT22;40985;53.180;5.800;2023-09-30T15:00:47;18.30;99.90
55091;DHT22;40985;53.180;5.800;2023-09-30T15:03:13;18.10;99.90
55091;DHT22;40985;53.180;5.800;2023-09-30T15:05:39;18.10;99.90
55091;DHT22;40985;53.180;5.800;2023-09-30T15:08:04;18.00;99.90
55091;DHT22;40985;53.180;5.800;2023-09-30T15:10:34;17.90;99.90
55091;DHT22;40985;53.180;5.800;2023-09-30T15:13:01;17.80;99.90
55091;DHT22;40985;53.180;5.800;2023-09-30T15:15:26;17.80;99.90
55091;DHT22;40985;53.180;5.800;2023-09-30T15:17:52;17.70;99.90
55091;DHT22;40985;53.180;5.800;2023-09-30T15:20:18;17.70;99.90
55091;DHT22;40985;53.180;5.800;2023-09-30T15:22:44;17.70;99.90
55091;DHT22;40985;53.180;5.800;2023-09-30T15:25:10;17.60;99.90
55091;DHT22;40985;53.180;5.800;2023-09-30T15:27:36;17.50;99.90
55091;DHT22;40985;53.180;5.800;2023-09-30T15:30:02;17.50;99.90
55091;DHT22;40985;53.180;5.800;2023-09-30T15:32:28;17.50;99.90
55091;DHT22;40985;53.180;5.800;2023-09-30T15:34:54;17.40;99.90
55091;DHT22;40985;53.180;5.800;2023-09-30T15:37:20;17.40;99.90
55091;DHT22;40985;53.180;5.800;2023-09-30T15:39:45;17.30;99.90
55091;DHT22;40985;53.180;5.800;2023-09-30T15:42:12;17.30;99.90
55091;DHT22;40985;53.180;5.800;2023-09-30T15:44:38;17.30;99.90
55091;DHT22;40985;53.180;5.800;2023-09-30T15:47:08;17.30;99.90